Aérodrome :
LOGIN :

S'inscrire | Disclaimer

   EN    FR    IT 

 










Légende :    VFR   VFR Marginal   IFR   IFR Intensif   IFR Très Intensif
Visi : 
Plafond : 
>= 8 km
>= 3000ft
5 à 8 km
1000 à 3000 ft
1500m à 5 km
500 à 1000 ft
800 à 1500m
200 à 500 ft
< 800m
< 200 ft
Symboles :   Orages  Brouillard  Fortes neiges  Fortes précipitations  Vent > 20 kt
SIGMETs :   Divers  Orages  Givrage  Turbulence  Onde Orograph.  Cendres Volcan.







- Altitude de l'aérodrome : 755 ft
- Code IATA : DRS


EDDC - Dresden Klotzsche

DERNIER METAR :
  • 201920Z 04002KT CAVOK M03/M06 Q1020 NOSIG

METARs EXPIRÉS :
  • 201850Z 07002KT CAVOK M02/M06 Q1020 NOSIG
  • 201820Z 09002KT CAVOK M03/M06 Q1019 NOSIG
  • 201750Z 06003KT CAVOK M03/M06 Q1019 NOSIG
  • 201720Z 05003KT CAVOK M02/M06 Q1019 NOSIG
  • 201650Z 03003KT 9999 FEW032 M02/M06 Q1019 NOSIG

TAF TAF EDDC
Valide du 20 à 18h jusqu'au 21 à 18h UTC


201700Z 2018/2118 VRB03KT CAVOK
BECMG 2102/2104 4000 BR
TEMPO 2103/2108 1400 BR
BECMG 2108/2110 8000
Pas de NOTAMs connus pour ce terrain.



MET'MAP, la Météo Aéronautique d'un coup d'oeil ! - Copyright ORBIFLY Décembre 2007 - Disclaimer

ORBIFLY MET'MAP TEAM :

Programmation & Développement : Alexandra Zaïnal
Conception & Développement : Baudouin d'Aumeries
Co-Programmation & Développement : Marc-Olivier Méhu
Soutien technique & logistique : Manuel Goepfert

Contact : metmap@orbifly.com




SOURCES & CREDITS :

   NOAA